Time;durP1;ratioP1;P1;durP2;ratioP2;P2;SDS_P1;SDS_P2;PMS_P1;PMS_P2;Temp;Humidity;BMP_temperature;BMP_pressure;BME280_temperature;BME280_humidity;BME280_pressure;Samples;Min_cycle;Max_cycle;Signal;HPM_P1;HPM_P2
2022/04/03 00:00:46;;;;;;;1.20;0.60;;;6.70;29.10;;;;;;5072378;28;20189;-35
2022/04/03 00:03:12;;;;;;;1.40;0.80;;;6.70;29.10;;;;;;5068617;28;20181;-35
2022/04/03 00:05:39;;;;;;;3.20;1.10;;;6.70;29.00;;;;;;5064859;28;20441;-35
2022/04/03 00:08:06;;;;;;;1.83;0.80;;;6.60;28.90;;;;;;5072806;28;20400;-35
2022/04/03 00:10:32;;;;;;;1.48;0.80;;;6.60;29.00;;;;;;5072404;28;20250;-34
2022/04/03 00:12:58;;;;;;;1.50;0.85;;;6.60;28.90;;;;;;5072975;28;20215;-35
2022/04/03 00:15:24;;;;;;;2.20;1.53;;;6.60;29.00;;;;;;5072853;28;20176;-35
2022/04/03 00:17:50;;;;;;;1.50;1.10;;;6.70;29.00;;;;;;5072949;28;20176;-35
2022/04/03 00:20:16;;;;;;;2.00;1.27;;;6.70;29.10;;;;;;5072807;28;20275;-35
2022/04/03 00:22:47;;;;;;;3.33;1.05;;;6.70;28.90;;;;;;5072343;28;20210;-35
2022/04/03 00:25:14;;;;;;;1.30;0.57;;;6.70;29.00;;;;;;5072515;28;20669;-35
2022/04/03 00:27:40;;;;;;;1.35;0.65;;;6.70;29.00;;;;;;5072762;28;20199;-35
2022/04/03 00:30:07;;;;;;;1.20;0.73;;;6.70;29.00;;;;;;5072361;28;20591;-35
2022/04/03 00:32:33;;;;;;;1.50;0.50;;;6.60;28.90;;;;;;5072361;28;20208;-36
2022/04/03 00:34:59;;;;;;;2.28;1.20;;;6.60;28.80;;;;;;5072221;28;20177;-33
2022/04/03 00:37:25;;;;;;;1.10;0.43;;;6.60;29.00;;;;;;5072653;28;20176;-33
2022/04/03 00:39:50;;;;;;;1.20;0.63;;;6.60;29.00;;;;;;5072374;28;20200;-32
2022/04/03 00:42:17;;;;;;;1.50;0.80;;;6.60;29.00;;;;;;5071889;28;20184;-33
2022/04/03 00:44:43;;;;;;;1.50;1.30;;;6.60;29.10;;;;;;5072415;28;20180;-33
2022/04/03 00:47:11;;;;;;;2.37;1.00;;;6.60;28.80;;;;;;5072217;28;20168;-33
2022/04/03 00:49:37;;;;;;;1.60;1.35;;;6.50;28.70;;;;;;5072030;28;20271;-33
2022/04/03 00:52:03;;;;;;;1.58;1.30;;;6.50;29.10;;;;;;5071878;28;20316;-34
2022/04/03 00:54:29;;;;;;;1.20;0.52;;;6.40;29.00;;;;;;5072172;28;20569;-33
2022/04/03 00:56:55;;;;;;;1.40;0.77;;;6.40;29.10;;;;;;5072139;28;20165;-32
2022/04/03 00:59:21;;;;;;;1.35;0.45;;;6.50;29.10;;;;;;5072078;28;20419;-32
2022/04/03 01:01:47;;;;;;;2.22;1.08;;;6.50;29.10;;;;;;5071820;28;20191;-33
2022/04/03 01:04:13;;;;;;;1.30;0.60;;;6.40;29.00;;;;;;5071898;28;20223;-33
2022/04/03 01:06:40;;;;;;;1.60;0.90;;;6.50;29.00;;;;;;5072303;28;20204;-33
2022/04/03 01:09:05;;;;;;;4.78;1.88;;;6.40;28.90;;;;;;5071807;28;20196;-33
2022/04/03 01:11:32;;;;;;;1.10;0.40;;;6.40;28.90;;;;;;5071664;28;20204;-33
2022/04/03 01:13:58;;;;;;;1.95;0.90;;;6.40;28.80;;;;;;5071982;28;20399;-33
2022/04/03 01:16:24;;;;;;;1.65;0.88;;;6.40;28.80;;;;;;5071874;28;20176;-33
2022/04/03 01:18:50;;;;;;;1.55;0.60;;;6.40;29.10;;;;;;5071786;28;20168;-33
2022/04/03 01:21:18;;;;;;;4.90;1.15;;;6.30;28.90;;;;;;5072026;28;20538;-33
2022/04/03 01:23:45;;;;;;;1.38;0.75;;;6.30;29.00;;;;;;5071846;28;20206;-33
2022/04/03 01:26:10;;;;;;;2.03;0.90;;;6.30;28.70;;;;;;5071787;28;20180;-33
2022/04/03 01:28:36;;;;;;;1.27;0.60;;;6.20;28.80;;;;;;5072165;28;20188;-33
2022/04/03 01:31:02;;;;;;;1.70;0.80;;;6.10;29.30;;;;;;5071613;28;20281;-33
2022/04/03 01:33:27;;;;;;;2.90;1.10;;;6.10;28.80;;;;;;5071842;28;20406;-33
2022/04/03 01:35:53;;;;;;;2.03;0.90;;;6.10;28.70;;;;;;5071762;28;20243;-33
2022/04/03 01:38:19;;;;;;;1.50;1.40;;;6.00;28.60;;;;;;5071737;28;20177;-32
2022/04/03 01:40:45;;;;;;;1.20;0.60;;;5.90;28.80;;;;;;5071906;28;20438;-33
2022/04/03 01:43:11;;;;;;;2.70;0.77;;;5.90;28.80;;;;;;5071750;28;20267;-33
2022/04/03 01:45:38;;;;;;;1.17;0.50;;;5.90;29.00;;;;;;5071695;28;20184;-33
2022/04/03 01:48:05;;;;;;;1.00;0.40;;;5.90;28.70;;;;;;5071464;28;20476;-33
2022/04/03 01:50:31;;;;;;;1.20;0.60;;;5.90;28.80;;;;;;5071619;28;20242;-33
2022/04/03 01:52:57;;;;;;;1.00;0.30;;;5.90;28.80;;;;;;5072302;28;20247;-33
2022/04/03 01:55:26;;;;;;;1.87;0.90;;;5.90;28.80;;;;;;5073510;28;20268;-33
2022/04/03 01:57:52;;;;;;;1.33;0.73;;;5.90;28.80;;;;;;5066919;28;20259;-33
2022/04/03 02:00:19;;;;;;;2.33;1.13;;;5.90;28.80;;;;;;5075374;28;20550;-33
2022/04/03 02:02:45;;;;;;;1.60;1.20;;;5.90;28.70;;;;;;5075071;28;20192;-33
2022/04/03 02:05:11;;;;;;;1.85;0.73;;;5.80;28.40;;;;;;5075163;28;20256;-33
2022/04/03 02:07:37;;;;;;;1.30;0.63;;;5.80;28.50;;;;;;5075425;28;20267;-33
2022/04/03 02:10:08;;;;;;;1.45;0.65;;;5.80;28.50;;;;;;5074936;28;20211;-33
2022/04/03 02:12:35;;;;;;;2.00;0.50;;;5.70;29.10;;;;;;5074927;28;20550;-33
2022/04/03 02:15:01;;;;;;;1.45;0.50;;;5.70;28.10;;;;;;5075204;28;20177;-33
2022/04/03 02:17:27;;;;;;;1.50;0.53;;;5.70;28.40;;;;;;5075000;28;20507;-33
2022/04/03 02:19:52;;;;;;;2.10;0.50;;;5.60;28.40;;;;;;5075112;28;20415;-33
2022/04/03 02:22:18;;;;;;;1.30;0.90;;;5.60;28.40;;;;;;5074672;28;20172;-32
2022/04/03 02:24:44;;;;;;;1.47;0.87;;;5.60;28.50;;;;;;5075080;28;20215;-33
2022/04/03 02:27:10;;;;;;;1.40;1.07;;;5.60;28.70;;;;;;5074765;28;20520;-33
2022/04/03 02:29:35;;;;;;;1.00;0.47;;;5.50;28.60;;;;;;5075086;28;20438;-33
2022/04/03 02:32:01;;;;;;;1.60;1.27;;;5.50;28.70;;;;;;5074427;28;20192;-33
2022/04/03 02:34:27;;;;;;;1.33;0.70;;;5.40;28.70;;;;;;5074676;28;20680;-33
2022/04/03 02:36:52;;;;;;;1.10;0.37;;;5.30;28.80;;;;;;5074722;28;20218;-33
2022/04/03 02:39:18;;;;;;;4.13;1.10;;;5.30;28.90;;;;;;5074467;28;20279;-33
2022/04/03 02:41:44;;;;;;;1.25;0.75;;;5.30;29.20;;;;;;5074580;28;20262;-33
2022/04/03 02:44:10;;;;;;;1.10;0.50;;;5.20;29.20;;;;;;5074403;28;20658;-33
2022/04/03 02:46:36;;;;;;;1.30;0.83;;;5.10;29.40;;;;;;5074672;28;20261;-33
2022/04/03 02:49:02;;;;;;;1.27;0.60;;;5.10;29.40;;;;;;5095388;22;20493;-32
2022/04/03 02:51:28;;;;;;;1.75;1.40;;;5.10;29.50;;;;;;5085894;28;20454;-31
2022/04/03 02:53:54;;;;;;;1.73;1.53;;;5.50;29.80;;;;;;5094512;28;20525;-31
2022/04/03 02:56:19;;;;;;;1.00;0.40;;;5.00;29.50;;;;;;5094854;28;20485;-31
2022/04/03 02:58:45;;;;;;;2.13;0.77;;;5.00;29.50;;;;;;5094452;28;20183;-32
2022/04/03 03:01:11;;;;;;;1.20;0.50;;;4.90;29.80;;;;;;5094153;28;20179;-32
2022/04/03 03:03:37;;;;;;;1.30;0.97;;;4.90;29.90;;;;;;5094016;28;20180;-33
2022/04/03 03:06:03;;;;;;;2.20;1.30;;;4.80;29.90;;;;;;5094683;28;20443;-33
2022/04/03 03:08:29;;;;;;;1.48;0.40;;;4.80;29.90;;;;;;5094208;28;20188;-32
2022/04/03 03:10:55;;;;;;;1.30;0.77;;;4.80;30.20;;;;;;5094188;28;20252;-32
2022/04/03 03:13:20;;;;;;;1.33;0.80;;;4.70;30.00;;;;;;5094220;28;20504;-31
2022/04/03 03:15:46;;;;;;;1.40;0.73;;;4.70;30.00;;;;;;5094194;28;20164;-31
2022/04/03 03:18:12;;;;;;;1.30;0.70;;;4.70;30.10;;;;;;5094138;28;20191;-32
2022/04/03 03:20:38;;;;;;;1.73;0.70;;;4.60;30.10;;;;;;5093838;28;20254;-33
2022/04/03 03:23:04;;;;;;;1.10;0.47;;;4.60;30.30;;;;;;5093958;28;20425;-31
2022/04/03 03:25:30;;;;;;;2.13;1.00;;;4.60;30.20;;;;;;5094058;28;20522;-32
2022/04/03 03:27:55;;;;;;;3.07;0.97;;;4.60;30.20;;;;;;5094159;28;20483;-31
2022/04/03 03:30:21;;;;;;;1.53;0.80;;;4.50;30.50;;;;;;5093805;28;20721;-32
2022/04/03 03:32:47;;;;;;;1.30;0.67;;;4.50;30.30;;;;;;5093984;28;20171;-31
2022/04/03 03:35:13;;;;;;;1.90;1.20;;;4.50;30.40;;;;;;5093926;28;20469;-31
2022/04/03 03:37:39;;;;;;;1.05;0.55;;;4.50;30.40;;;;;;5093594;28;20176;-32
2022/04/03 03:40:06;;;;;;;1.02;0.35;;;4.40;30.40;;;;;;5093789;28;20168;-31
2022/04/03 03:42:33;;;;;;;2.78;1.52;;;4.40;30.50;;;;;;5093681;28;20182;-33
2022/04/03 03:44:59;;;;;;;3.05;0.90;;;4.30;30.70;;;;;;5115294;28;20220;-33
2022/04/03 03:47:26;;;;;;;1.30;0.77;;;4.30;30.80;;;;;;5118859;28;20160;-33
2022/04/03 03:49:52;;;;;;;1.13;0.30;;;4.20;30.70;;;;;;5118247;28;20203;-33
2022/04/03 03:52:18;;;;;;;1.50;0.90;;;4.20;30.70;;;;;;5118695;28;20210;-35
2022/04/03 03:54:45;;;;;;;2.30;0.97;;;4.20;30.70;;;;;;5094428;28;20417;-32
2022/04/03 03:57:11;;;;;;;3.25;1.40;;;4.20;30.70;;;;;;5093642;28;20409;-31
2022/04/03 03:59:37;;;;;;;1.50;0.82;;;4.20;31.00;;;;;;5093326;28;20202;-31
2022/04/03 04:02:03;;;;;;;1.73;0.67;;;4.20;30.80;;;;;;5093128;28;20164;-32
2022/04/03 04:04:29;;;;;;;1.67;1.33;;;4.10;31.00;;;;;;5093278;28;20633;-32
2022/04/03 04:06:55;;;;;;;2.07;1.13;;;4.10;30.80;;;;;;5093129;28;20172;-31
2022/04/03 04:09:21;;;;;;;1.00;0.40;;;4.10;30.90;;;;;;5093157;28;20196;-32
2022/04/03 04:11:47;;;;;;;1.40;0.70;;;4.10;30.80;;;;;;5092879;28;20207;-31
2022/04/03 04:14:14;;;;;;;2.40;1.37;;;4.00;30.90;;;;;;5093161;28;20506;-31
2022/04/03 04:16:40;;;;;;;2.05;0.90;;;4.00;30.90;;;;;;5092351;28;20171;-31
2022/04/03 04:19:06;;;;;;;1.08;0.60;;;4.00;30.90;;;;;;5092902;28;20274;-31
2022/04/03 04:21:33;;;;;;;1.08;0.55;;;3.90;31.30;;;;;;5093054;28;20549;-32
2022/04/03 04:23:58;;;;;;;1.00;0.40;;;3.90;31.00;;;;;;5093114;28;20179;-32
2022/04/03 04:26:25;;;;;;;1.60;0.93;;;3.90;31.30;;;;;;5093014;28;20639;-32
2022/04/03 04:28:51;;;;;;;3.55;0.90;;;3.90;31.10;;;;;;5093013;28;20439;-31
2022/04/03 04:31:18;;;;;;;1.40;0.70;;;3.90;31.40;;;;;;5092636;28;20248;-32
2022/04/03 04:33:44;;;;;;;3.83;0.60;;;3.80;31.20;;;;;;5092705;28;20178;-31
2022/04/03 04:36:10;;;;;;;1.70;0.85;;;4.40;31.40;;;;;;5092959;28;20179;-32
2022/04/03 04:38:36;;;;;;;1.40;0.97;;;3.80;31.50;;;;;;5092639;28;20199;-31
2022/04/03 04:41:03;;;;;;;1.73;1.00;;;3.70;31.30;;;;;;5092695;28;20213;-32
2022/04/03 04:43:29;;;;;;;1.45;0.90;;;3.70;31.30;;;;;;5092642;28;20560;-32
2022/04/03 04:45:54;;;;;;;1.42;0.93;;;3.70;31.40;;;;;;5092766;28;20175;-31
2022/04/03 04:48:20;;;;;;;1.63;1.30;;;3.70;32.30;;;;;;5092294;28;20246;-31
2022/04/03 04:50:46;;;;;;;1.00;0.37;;;3.60;31.90;;;;;;5092204;28;20320;-30
2022/04/03 04:53:12;;;;;;;1.30;0.67;;;3.60;31.70;;;;;;5092457;28;20428;-31
2022/04/03 04:55:37;;;;;;;1.73;1.33;;;3.60;32.00;;;;;;5092436;28;20220;-31
2022/04/03 04:58:03;;;;;;;3.00;0.97;;;3.60;31.60;;;;;;5092395;28;20202;-33
2022/04/03 05:00:30;;;;;;;1.93;0.97;;;3.60;31.70;;;;;;5092132;28;20171;-33
2022/04/03 05:02:56;;;;;;;1.40;0.60;;;3.60;32.00;;;;;;5092590;28;20401;-33
2022/04/03 05:05:26;;;;;;;1.20;0.65;;;4.40;32.20;;;;;;5091082;28;20165;-32
2022/04/03 05:07:56;;;;;;;1.05;0.47;;;3.60;31.80;;;;;;5092250;28;20573;-31
2022/04/03 05:10:24;;;;;;;1.73;0.63;;;3.80;31.90;;;;;;5092048;28;20258;-33
2022/04/03 05:12:50;;;;;;;1.85;1.05;;;3.70;31.90;;;;;;5092248;28;20215;-33
2022/04/03 05:15:18;;;;;;;1.17;0.50;;;4.40;32.40;;;;;;5092117;28;20176;-31
2022/04/03 05:17:45;;;;;;;1.20;0.70;;;3.70;31.90;;;;;;5091996;28;20935;-31
2022/04/03 05:20:12;;;;;;;1.63;0.93;;;3.70;31.90;;;;;;5092277;28;20171;-32
2022/04/03 05:22:39;;;;;;;1.48;1.25;;;3.80;32.40;;;;;;5092046;28;20164;-33
2022/04/03 05:25:05;;;;;;;1.23;0.43;;;3.80;31.90;;;;;;5092301;28;20180;-31
2022/04/03 05:27:31;;;;;;;1.52;1.13;;;3.80;32.60;;;;;;5093660;28;20251;-31
2022/04/03 05:29:57;;;;;;;1.92;0.90;;;3.90;32.10;;;;;;5096263;28;20199;-31
2022/04/03 05:32:28;;;;;;;1.77;0.87;;;3.90;31.90;;;;;;5095929;28;20241;-31
2022/04/03 05:34:54;;;;;;;1.10;0.60;;;4.00;31.80;;;;;;5096166;28;20736;-32
2022/04/03 05:37:21;;;;;;;1.55;0.80;;;4.00;31.80;;;;;;5096153;28;20176;-31
2022/04/03 05:39:47;;;;;;;2.00;1.02;;;4.10;31.90;;;;;;5095953;28;20207;-31
2022/04/03 05:42:12;;;;;;;1.25;0.70;;;4.10;31.80;;;;;;5095771;28;20209;-32
2022/04/03 05:44:38;;;;;;;9.10;2.00;;;4.20;31.60;;;;;;5095704;28;20172;-32
2022/04/03 05:47:04;;;;;;;1.30;0.93;;;4.30;31.60;;;;;;5095838;28;20687;-31
2022/04/03 05:49:31;;;;;;;1.70;1.17;;;4.30;31.60;;;;;;5095644;28;20219;-32
2022/04/03 05:51:56;;;;;;;2.40;1.10;;;4.40;31.70;;;;;;5095628;28;20199;-31
2022/04/03 05:54:22;;;;;;;1.60;0.80;;;4.40;31.70;;;;;;5095763;28;20183;-32
2022/04/03 05:56:48;;;;;;;2.60;1.03;;;4.40;31.80;;;;;;5095686;28;20210;-31
2022/04/03 05:59:14;;;;;;;1.75;1.05;;;4.50;31.70;;;;;;5095425;28;20245;-32
2022/04/03 06:01:40;;;;;;;1.30;0.63;;;4.50;31.90;;;;;;5095368;28;20175;-31
2022/04/03 06:04:06;;;;;;;4.05;1.65;;;4.60;31.60;;;;;;5095685;28;20409;-31
2022/04/03 06:06:31;;;;;;;4.50;1.30;;;4.60;31.60;;;;;;5095490;28;20199;-31
2022/04/03 06:08:57;;;;;;;2.60;1.10;;;4.70;31.50;;;;;;5095293;28;20561;-30
2022/04/03 06:11:23;;;;;;;1.97;1.30;;;4.70;31.30;;;;;;5095549;28;20200;-31
2022/04/03 06:13:48;;;;;;;1.40;0.70;;;4.80;31.30;;;;;;5095817;28;20171;-33
2022/04/03 06:16:14;;;;;;;2.13;1.00;;;4.80;31.30;;;;;;5097079;28;20206;-31
2022/04/03 06:18:40;;;;;;;2.13;1.43;;;4.90;31.40;;;;;;5095809;28;20184;-31
2022/04/03 06:21:06;;;;;;;1.60;0.90;;;4.90;31.30;;;;;;5095104;28;20204;-31
2022/04/03 06:23:31;;;;;;;2.00;1.17;;;4.90;31.20;;;;;;5095627;28;20183;-31
2022/04/03 06:25:58;;;;;;;2.70;1.23;;;5.00;31.30;;;;;;5095097;28;20616;-31
2022/04/03 06:28:25;;;;;;;1.30;0.68;;;5.20;31.30;;;;;;5095197;28;20560;-31
2022/04/03 06:30:52;;;;;;;1.90;0.77;;;5.20;31.10;;;;;;5095009;28;20589;-32
2022/04/03 06:33:18;;;;;;;1.50;0.90;;;5.40;31.10;;;;;;5095085;28;20167;-32
2022/04/03 06:35:44;;;;;;;2.38;1.00;;;5.40;31.00;;;;;;5094974;28;20249;-31
2022/04/03 06:38:12;;;;;;;1.75;0.85;;;5.40;31.50;;;;;;5094682;28;20283;-31
2022/04/03 06:40:48;;;;;;;1.30;0.93;;;5.40;31.60;;;;;;5094055;28;20171;-32
2022/04/03 06:43:22;;;;;;;1.73;0.93;;;5.40;31.60;;;;;;5094955;28;20168;-32
2022/04/03 06:45:50;;;;;;;1.63;1.45;;;5.50;31.50;;;;;;5094852;28;20609;-31
2022/04/03 06:48:16;;;;;;;2.22;1.55;;;5.60;31.40;;;;;;5094556;28;20256;-32
2022/04/03 06:50:42;;;;;;;1.30;1.00;;;5.50;31.40;;;;;;5094615;28;20180;-31
2022/04/03 06:53:08;;;;;;;2.85;0.90;;;5.40;31.50;;;;;;5094526;28;20640;-31
2022/04/03 06:55:34;;;;;;;2.10;0.97;;;5.40;31.50;;;;;;5094499;28;20172;-31
2022/04/03 06:58:00;;;;;;;2.13;1.15;;;5.40;32.50;;;;;;5094719;28;20850;-31
2022/04/03 07:00:26;;;;;;;1.57;1.33;;;5.60;31.80;;;;;;5094377;28;20203;-32
2022/04/03 07:02:52;;;;;;;2.80;1.00;;;5.70;31.20;;;;;;5094525;28;20172;-33
2022/04/03 07:05:18;;;;;;;1.85;0.68;;;5.90;31.30;;;;;;5094366;28;20539;-32
2022/04/03 07:07:44;;;;;;;3.33;1.00;;;6.10;31.00;;;;;;5094281;28;20229;-33
2022/04/03 07:10:10;;;;;;;1.37;0.70;;;6.20;30.90;;;;;;5094243;28;20168;-31
2022/04/03 07:12:36;;;;;;;2.22;1.20;;;6.30;30.70;;;;;;5093752;28;20231;-32
2022/04/03 07:15:04;;;;;;;1.95;1.17;;;6.40;30.00;;;;;;5094154;28;20637;-32
2022/04/03 07:17:30;;;;;;;2.53;1.23;;;6.30;29.90;;;;;;5094037;28;20187;-32
2022/04/03 07:19:55;;;;;;;1.33;0.73;;;6.30;30.40;;;;;;5094094;28;20212;-31
2022/04/03 07:22:21;;;;;;;2.80;1.50;;;6.30;30.20;;;;;;5093874;28;20180;-32
2022/04/03 07:24:46;;;;;;;3.43;1.10;;;6.50;30.50;;;;;;5093864;28;20190;-31
2022/04/03 07:27:12;;;;;;;3.00;2.40;;;6.60;29.50;;;;;;5094369;28;20172;-32
2022/04/03 07:29:38;;;;;;;2.10;0.77;;;6.80;29.80;;;;;;5093851;28;20200;-32
2022/04/03 07:32:04;;;;;;;1.20;0.70;;;7.00;29.60;;;;;;5093796;28;20206;-32
2022/04/03 07:34:30;;;;;;;2.25;1.15;;;7.10;28.70;;;;;;5093757;28;20176;-32
2022/04/03 07:36:56;;;;;;;2.70;1.30;;;7.10;29.00;;;;;;5094058;28;20179;-32
2022/04/03 07:39:23;;;;;;;3.30;1.15;;;7.20;28.70;;;;;;5093498;28;20732;-33
2022/04/03 07:41:49;;;;;;;1.58;1.08;;;7.30;28.70;;;;;;5093652;28;20522;-32
2022/04/03 07:44:15;;;;;;;2.60;1.00;;;7.40;28.80;;;;;;5093925;28;20179;-32
2022/04/03 07:46:40;;;;;;;4.83;1.43;;;7.40;27.70;;;;;;5093479;28;20445;-32
2022/04/03 07:49:06;;;;;;;2.97;1.80;;;7.60;28.60;;;;;;5093421;28;20216;-32
2022/04/03 07:51:32;;;;;;;2.43;1.30;;;7.80;28.00;;;;;;5092028;28;20449;-31
2022/04/03 07:53:58;;;;;;;2.53;1.27;;;7.90;26.80;;;;;;5093330;28;20175;-32
2022/04/03 07:56:23;;;;;;;4.10;1.10;;;7.90;27.50;;;;;;5082848;28;20443;-32
2022/04/03 07:58:49;;;;;;;1.30;0.80;;;7.90;27.70;;;;;;5088350;28;20191;-31
2022/04/03 08:01:15;;;;;;;2.70;1.43;;;7.90;27.30;;;;;;5093141;28;20221;-32
2022/04/03 08:03:41;;;;;;;2.00;0.88;;;8.10;27.60;;;;;;5093258;28;20166;-33
2022/04/03 08:06:06;;;;;;;3.63;1.03;;;8.30;27.80;;;;;;5093513;28;20541;-32
2022/04/03 08:08:33;;;;;;;2.70;1.23;;;8.20;25.90;;;;;;5093021;28;20584;-32
2022/04/03 08:10:58;;;;;;;1.48;0.93;;;8.20;27.00;;;;;;5092961;28;20204;-31
2022/04/03 08:13:24;;;;;;;1.40;0.77;;;8.10;26.30;;;;;;5093066;28;20172;-32
2022/04/03 08:15:50;;;;;;;1.20;0.60;;;7.90;27.00;;;;;;5092981;28;20183;-32
2022/04/03 08:18:16;;;;;;;5.97;1.70;;;7.90;27.70;;;;;;5092933;28;20236;-33
2022/04/03 08:20:45;;;;;;;1.73;1.05;;;8.00;25.00;;;;;;5092869;28;20718;-31
2022/04/03 08:23:11;;;;;;;1.70;1.08;;;8.00;26.50;;;;;;5092802;28;20215;-32
2022/04/03 08:25:37;;;;;;;1.60;1.27;;;8.20;26.60;;;;;;5093080;28;20265;-31
2022/04/03 08:28:03;;;;;;;1.70;0.70;;;8.30;25.90;;;;;;5092861;28;20196;-31
2022/04/03 08:30:32;;;;;;;1.35;0.70;;;8.50;25.70;;;;;;5092657;28;20202;-32
2022/04/03 08:32:58;;;;;;;1.30;0.65;;;8.60;24.70;;;;;;5092692;28;20549;-32
2022/04/03 08:35:28;;;;;;;3.85;1.05;;;8.70;24.70;;;;;;5092636;28;20179;-32
2022/04/03 08:37:55;;;;;;;1.27;0.55;;;8.90;24.80;;;;;;5092495;28;20176;-32
2022/04/03 08:40:23;;;;;;;1.30;0.50;;;9.10;24.60;;;;;;5092655;28;20190;-31
2022/04/03 08:42:54;;;;;;;1.30;0.70;;;9.20;21.60;;;;;;5092601;28;20639;-32
2022/04/03 08:45:21;;;;;;;1.60;0.70;;;9.20;21.20;;;;;;5092561;28;20283;-33
2022/04/03 08:47:55;;;;;;;1.75;0.95;;;9.00;20.70;;;;;;5092362;28;20561;-32
2022/04/03 08:50:28;;;;;;;1.38;0.65;;;8.90;22.40;;;;;;5092560;28;20178;-31
2022/04/03 08:52:57;;;;;;;1.95;0.68;;;9.00;22.40;;;;;;5092290;28;20286;-32
2022/04/03 08:55:22;;;;;;;1.45;0.73;;;8.90;22.30;;;;;;5092406;28;20177;-31
2022/04/03 08:57:48;;;;;;;1.93;1.00;;;9.00;23.40;;;;;;5092390;28;20184;-32
2022/04/03 09:00:15;;;;;;;1.67;1.30;;;9.10;23.80;;;;;;5092279;28;20214;-32
2022/04/03 09:02:42;;;;;;;2.33;0.88;;;9.30;23.80;;;;;;5091723;28;20258;-32
2022/04/03 09:05:11;;;;;;;1.85;0.90;;;9.40;21.80;;;;;;5092597;28;20253;-32
2022/04/03 09:07:37;;;;;;;1.88;1.23;;;9.50;22.50;;;;;;5092147;28;20168;-32
2022/04/03 09:10:37;;;;;;;1.40;0.95;;;9.40;21.50;;;;;;5092410;28;20184;-33
2022/04/03 09:13:03;;;;;;;2.42;1.08;;;9.50;22.10;;;;;;5076847;28;20182;-31
2022/04/03 09:15:30;;;;;;;1.65;0.70;;;9.50;22.40;;;;;;5092243;28;20252;-31
2022/04/03 09:18:03;;;;;;;1.42;0.57;;;9.50;20.40;;;;;;5091983;28;20673;-31
2022/04/03 09:20:33;;;;;;;2.03;1.23;;;9.50;20.90;;;;;;5089522;22;20228;-33
2022/04/03 09:23:05;;;;;;;1.40;0.95;;;9.40;21.10;;;;;;5075641;28;20203;-35
2022/04/03 09:25:35;;;;;;;1.58;0.77;;;9.40;21.30;;;;;;5072001;28;20165;-33
2022/04/03 09:28:06;;;;;;;1.20;0.73;;;9.50;20.60;;;;;;5079863;28;20186;-33
2022/04/03 09:30:33;;;;;;;1.60;0.93;;;9.50;19.60;;;;;;5091767;28;20191;-33
2022/04/03 09:33:00;;;;;;;1.33;0.70;;;9.20;19.10;;;;;;5092120;28;20160;-33
2022/04/03 09:35:52;;;;;;;2.85;0.75;;;9.10;20.00;;;;;;5092153;28;20236;-33
2022/04/03 09:38:18;;;;;;;2.75;1.30;;;9.00;19.20;;;;;;5084408;28;20643;-33
2022/04/03 09:40:52;;;;;;;1.55;0.93;;;9.00;20.30;;;;;;5091122;28;20241;-33
2022/04/03 09:43:24;;;;;;;1.50;0.70;;;9.10;20.60;;;;;;5081817;28;20175;-33
2022/04/03 09:45:56;;;;;;;1.77;1.38;;;9.10;19.50;;;;;;5092266;28;20172;-33
2022/04/03 09:48:31;;;;;;;1.85;0.93;;;9.10;19.70;;;;;;5092276;28;20264;-33
2022/04/03 09:51:07;;;;;;;1.70;1.02;;;9.10;19.00;;;;;;5091667;28;20216;-33
2022/04/03 09:53:43;;;;;;;2.42;1.10;;;9.10;20.30;;;;;;5091845;28;20169;-33
2022/04/03 09:56:11;;;;;;;2.05;1.13;;;9.20;20.00;;;;;;5092447;28;20176;-33
2022/04/03 09:58:49;;;;;;;2.53;1.80;;;9.20;19.50;;;;;;5091995;28;20620;-33
2022/04/03 10:01:39;;;;;;;2.30;1.30;;;9.10;19.00;;;;;;5091737;28;20174;-33
2022/04/03 10:04:10;;;;;;;1.85;1.05;;;9.00;19.30;;;;;;5091784;28;20633;-33
2022/04/03 10:06:40;;;;;;;2.60;0.88;;;8.90;19.60;;;;;;5091914;28;20180;-33
2022/04/03 10:09:14;;;;;;;1.30;0.60;;;8.90;18.90;;;;;;5091912;28;20188;-33
2022/04/03 10:11:42;;;;;;;1.30;0.60;;;8.80;18.50;;;;;;5094695;28;20252;-32
2022/04/03 10:14:09;;;;;;;1.50;0.80;;;8.80;18.50;;;;;;5092088;28;20212;-33
2022/04/03 10:16:35;;;;;;;1.65;0.90;;;8.80;18.90;;;;;;5094774;28;20165;-32
2022/04/03 10:19:00;;;;;;;1.57;0.90;;;8.90;18.80;;;;;;5103593;28;20268;-33
2022/04/03 10:21:36;;;;;;;1.10;0.53;;;8.90;19.00;;;;;;5099831;28;20442;-33
2022/04/03 10:24:25;;;;;;;1.55;0.88;;;9.00;19.50;;;;;;5100563;28;20673;-33
2022/04/03 10:27:12;;;;;;;2.67;1.00;;;9.20;19.10;;;;;;5100424;28;20184;-33
2022/04/03 10:29:41;;;;;;;1.40;0.70;;;9.40;18.90;;;;;;5095524;28;20199;-33
2022/04/03 10:32:08;;;;;;;1.95;0.65;;;9.50;18.60;;;;;;5094931;28;20333;-33
2022/04/03 10:34:51;;;;;;;2.42;0.90;;;9.60;17.20;;;;;;5095042;28;20284;-33
2022/04/03 10:37:41;;;;;;;1.70;0.90;;;9.50;18.20;;;;;;5095052;28;20178;-33
2022/04/03 10:40:17;;;;;;;1.80;0.70;;;9.30;17.30;;;;;;5089536;28;20201;-33
2022/04/03 10:42:58;;;;;;;1.55;0.80;;;9.10;18.60;;;;;;5094767;28;20152;-33
2022/04/03 10:45:28;;;;;;;1.73;0.85;;;9.10;18.50;;;;;;5094735;28;20610;-33
2022/04/03 10:48:22;;;;;;;1.90;0.70;;;9.00;19.00;;;;;;5094867;28;20237;-33
2022/04/03 10:50:56;;;;;;;1.52;0.80;;;9.10;18.90;;;;;;5094260;28;20282;-33
2022/04/03 10:53:28;;;;;;;1.45;0.70;;;9.30;19.40;;;;;;5094604;28;20171;-33
2022/04/03 10:55:55;;;;;;;1.98;0.68;;;9.60;19.70;;;;;;5094933;28;20248;-33
2022/04/03 10:58:22;;;;;;;8.35;1.23;;;10.00;18.90;;;;;;5094644;28;20191;-33
2022/04/03 11:00:49;;;;;;;2.40;0.85;;;10.20;18.70;;;;;;5094182;28;20229;-33
2022/04/03 11:03:15;;;;;;;2.50;0.88;;;10.40;18.10;;;;;;5094382;28;20644;-33
2022/04/03 11:05:42;;;;;;;1.30;0.53;;;10.60;17.00;;;;;;5094499;28;20172;-33
2022/04/03 11:08:08;;;;;;;2.47;1.10;;;10.40;17.70;;;;;;5094386;28;20160;-33
2022/04/03 11:10:54;;;;;;;1.30;0.70;;;10.60;18.20;;;;;;5094049;28;20188;-33
2022/04/03 11:13:32;;;;;;;1.40;0.68;;;11.00;18.60;;;;;;5094307;28;20163;-33
2022/04/03 11:16:05;;;;;;;3.33;0.85;;;11.40;18.00;;;;;;5094583;28;20259;-33
2022/04/03 11:18:33;;;;;;;4.80;1.17;;;11.70;16.70;;;;;;5094348;28;20174;-33
2022/04/03 11:21:23;;;;;;;1.35;0.80;;;11.80;16.50;;;;;;5093960;28;20184;-33
2022/04/03 11:24:11;;;;;;;2.20;1.50;;;11.90;14.70;;;;;;5094033;28;20179;-33
2022/04/03 11:26:39;;;;;;;2.58;1.27;;;11.90;15.40;;;;;;5093869;28;20167;-33
2022/04/03 11:29:07;;;;;;;1.80;0.73;;;12.30;16.90;;;;;;5094085;28;20180;-33
2022/04/03 11:31:34;;;;;;;1.90;1.20;;;12.60;16.70;;;;;;5096924;28;20226;-33
2022/04/03 11:34:00;;;;;;;1.52;0.65;;;12.70;16.00;;;;;;5097747;28;20537;-33
2022/04/03 11:36:28;;;;;;;1.55;0.95;;;12.70;14.70;;;;;;5098252;28;20172;-33
2022/04/03 11:38:55;;;;;;;2.08;1.10;;;12.50;14.80;;;;;;5098720;28;20188;-33
2022/04/03 11:41:27;;;;;;;3.10;1.20;;;11.90;14.10;;;;;;5096284;28;20186;-33
2022/04/03 11:44:01;;;;;;;1.40;0.65;;;11.70;16.10;;;;;;5096320;28;20182;-33
2022/04/03 11:46:36;;;;;;;2.28;1.50;;;11.20;15.80;;;;;;5095628;28;20565;-33
2022/04/03 11:49:10;;;;;;;1.80;1.20;;;11.10;16.10;;;;;;5085817;28;20673;-33
2022/04/03 11:51:36;;;;;;;1.90;1.05;;;11.00;17.10;;;;;;5093271;28;20198;-33
2022/04/03 11:54:02;;;;;;;3.17;1.13;;;11.20;17.90;;;;;;5093815;28;20168;-33
2022/04/03 11:56:34;;;;;;;2.03;1.43;;;11.00;17.70;;;;;;5090982;28;20259;-33
2022/04/03 11:59:00;;;;;;;1.60;1.00;;;11.10;17.80;;;;;;5081658;28;20433;-33
2022/04/03 12:01:27;;;;;;;1.45;0.90;;;10.90;17.30;;;;;;5052889;28;20266;-33
2022/04/03 12:04:08;;;;;;;3.13;1.48;;;10.80;18.80;;;;;;5051894;28;20201;-33
2022/04/03 12:06:35;;;;;;;4.35;1.55;;;11.00;18.70;;;;;;5074016;28;20175;-33
2022/04/03 12:09:11;;;;;;;1.75;1.25;;;11.30;18.30;;;;;;5089589;28;20198;-34
2022/04/03 12:11:39;;;;;;;2.00;1.38;;;11.60;19.30;;;;;;5092680;28;20207;-34
2022/04/03 12:14:06;;;;;;;2.53;1.80;;;12.10;19.00;;;;;;5093318;28;20205;-34
2022/04/03 12:16:37;;;;;;;1.50;0.95;;;12.40;17.40;;;;;;5093001;28;20173;-34
2022/04/03 12:19:04;;;;;;;2.28;0.90;;;12.50;17.00;;;;;;5077847;28;20638;-34
2022/04/03 12:21:37;;;;;;;1.80;1.02;;;12.40;15.30;;;;;;5092812;28;20618;-34
2022/04/03 12:24:09;;;;;;;2.88;0.88;;;11.90;15.70;;;;;;5092786;28;20569;-34
2022/04/03 12:26:35;;;;;;;2.63;1.40;;;11.70;17.20;;;;;;5092875;28;20663;-34
2022/04/03 12:29:03;;;;;;;3.40;1.45;;;11.70;16.80;;;;;;5092866;28;20764;-34
2022/04/03 12:31:30;;;;;;;2.83;1.10;;;11.70;17.30;;;;;;5092459;28;20202;-34
2022/04/03 12:34:10;;;;;;;1.40;0.93;;;11.30;16.50;;;;;;5092739;28;20170;-34
2022/04/03 12:36:44;;;;;;;2.50;1.02;;;10.90;17.30;;;;;;5080700;28;20184;-34
2022/04/03 12:39:39;;;;;;;2.00;1.02;;;10.70;17.10;;;;;;5090457;28;20222;-34
2022/04/03 12:42:22;;;;;;;4.35;1.42;;;11.00;18.60;;;;;;5092757;28;20533;-34
2022/04/03 12:45:12;;;;;;;1.70;1.10;;;11.50;17.80;;;;;;5092457;28;20312;-34
2022/04/03 12:47:41;;;;;;;2.10;1.42;;;11.60;16.00;;;;;;5092474;28;20251;-34
2022/04/03 12:50:06;;;;;;;2.17;1.50;;;11.40;16.10;;;;;;5090962;28;20195;-34
2022/04/03 12:52:41;;;;;;;2.10;1.10;;;11.30;17.40;;;;;;5092191;28;20550;-34
2022/04/03 13:00:43;;;;;;;1.98;1.17;;;10.80;17.30;;;;;;5091981;28;20247;-34
2022/04/03 13:03:09;;;;;;;2.13;1.17;;;10.90;17.70;;;;;;5073962;28;20522;-34
2022/04/03 13:05:35;;;;;;;3.07;0.90;;;10.80;17.30;;;;;;5083717;28;20164;-33